createdAt,value
2022-12-24T00:00:07.217Z,-10895.13
2022-12-24T00:03:13.817Z,-10902.25
2022-12-24T00:06:22.006Z,-10897.06
2022-12-24T00:09:28.143Z,-10889.22
2022-12-24T00:12:36.005Z,-10879.03
2022-12-24T00:15:42.441Z,-10873.56
2022-12-24T00:18:49.083Z,-10874.13
2022-12-24T00:21:54.996Z,-10871.75
2022-12-24T00:25:01.157Z,-10889.66
2022-12-24T00:28:08.644Z,-10896.50
2022-12-24T00:31:17.583Z,-10897.91
2022-12-24T00:34:24.681Z,-10898.47
2022-12-24T00:37:31.122Z,-10902.81
2022-12-24T00:40:37.532Z,-10895.25
2022-12-24T00:43:45.267Z,-10895.69
2022-12-24T00:46:51.427Z,-10877.47
2022-12-24T00:49:57.933Z,-10870.63
2022-12-24T00:53:04.306Z,-10873.97
2022-12-24T00:56:11.468Z,-10864.75
2022-12-24T00:59:19.386Z,-10886.72
2022-12-24T01:02:26.221Z,-10881.81
2022-12-24T01:05:32.598Z,-10885.59
2022-12-24T01:08:39.849Z,-10878.03
2022-12-24T01:11:46.460Z,-10875.81
2022-12-24T01:14:54.255Z,-10884.63
2022-12-24T01:18:00.549Z,-10879.44
2022-12-24T01:21:07.295Z,-10885.03
2022-12-24T01:24:16.410Z,-10882.25
2022-12-24T01:27:23.071Z,-10883.63
2022-12-24T01:30:31.230Z,-10889.66
2022-12-24T01:33:37.793Z,-10895.13
2022-12-24T01:36:44.235Z,-10890.78
2022-12-24T01:39:50.419Z,-10878.31
2022-12-24T01:43:10.346Z,-10889.66
2022-12-24T01:46:21.824Z,-10884.75
2022-12-24T01:49:28.344Z,-10873.41
2022-12-24T01:52:36.872Z,-10865.16
2022-12-24T01:55:46.103Z,-10864.34
2022-12-24T01:58:57.250Z,-10875.25
2022-12-24T02:02:05.351Z,-10867.84
2022-12-24T02:05:17.160Z,-10871.31
2022-12-24T02:08:23.756Z,-10876.63
2022-12-24T02:11:31.450Z,-10869.38
2022-12-24T02:14:38.602Z,-10885.88
2022-12-24T02:17:55.624Z,-10870.06
2022-12-24T02:21:36.931Z,-10872.88
2022-12-24T02:25:30.826Z,-10874.41
2022-12-24T02:28:55.954Z,-10872.16
2022-12-24T02:32:07.873Z,-10862.94
2022-12-24T02:35:18.833Z,-10875.38
2022-12-24T02:38:29.923Z,-10878.59
2022-12-24T02:41:52.772Z,-10883.34
2022-12-24T02:45:04.504Z,-10882.38
2022-12-24T02:48:13.613Z,-10873.00
2022-12-24T02:51:24.499Z,-10871.19
2022-12-24T02:54:31.295Z,-10857.75
2022-12-24T02:57:51.517Z,-10874.41
2022-12-24T03:01:16.781Z,-10871.47
2022-12-24T03:04:43.525Z,-10877.47
2022-12-24T03:07:58.419Z,-10873.00
2022-12-24T03:11:11.025Z,-10867.69
2022-12-24T03:14:18.556Z,-10859.16
2022-12-24T03:17:25.036Z,-10865.16
2022-12-24T03:20:38.878Z,-10858.31
2022-12-24T03:23:45.722Z,-10856.34
2022-12-24T03:26:54.064Z,-10846.72
2022-12-24T03:30:00.185Z,-10837.19
2022-12-24T03:33:06.581Z,-10840.56
2022-12-24T03:36:15.271Z,-10844.47
2022-12-24T03:39:21.451Z,-10848.09
2022-12-24T03:42:27.962Z,-10863.78
2022-12-24T03:45:34.736Z,-10861.25
2022-12-24T03:48:40.841Z,-10864.34
2022-12-24T03:51:48.381Z,-10857.63
2022-12-24T03:54:54.703Z,-10858.19
2022-12-24T03:58:00.722Z,-10868.81
2022-12-24T04:01:07.448Z,-10858.03
2022-12-24T04:04:13.669Z,-10867.13
2022-12-24T04:07:21.532Z,-10864.06
2022-12-24T04:10:28.060Z,-10867.13
2022-12-24T04:13:34.312Z,-10866.28
2022-12-24T04:16:40.601Z,-10870.22
2022-12-24T04:19:46.948Z,-10868.81
2022-12-24T04:22:55.811Z,-10865.16
2022-12-24T04:26:02.969Z,-10863.78
2022-12-24T04:29:09.420Z,-10861.81
2022-12-24T04:32:15.809Z,-10866.28
2022-12-24T04:35:22.147Z,-10863.06
2022-12-24T04:38:30.561Z,-10864.19
2022-12-24T04:41:37.347Z,-10859.28
2022-12-24T04:44:43.911Z,-10849.50
2022-12-24T04:47:50.207Z,-10845.44
2022-12-24T04:50:56.658Z,-10853.28
2022-12-24T04:54:04.730Z,-10863.22
2022-12-24T04:57:11.258Z,-10844.75
2022-12-24T05:00:17.822Z,-10834.41
2022-12-24T05:03:24.355Z,-10856.50
2022-12-24T05:06:32.914Z,-10851.19
2022-12-24T05:09:40.509Z,-10843.91
2022-12-24T05:12:46.537Z,-10835.25
2022-12-24T05:15:52.836Z,-10846.56
2022-12-24T05:18:59.153Z,-10857.47
2022-12-24T05:22:23.181Z,-10857.75
2022-12-24T05:25:55.147Z,-10864.59
2022-12-24T05:29:03.493Z,-10862.94
2022-12-24T05:32:09.859Z,-10857.75
2022-12-24T05:35:16.513Z,-10861.25
2022-12-24T05:38:23.283Z,-10863.50
2022-12-24T05:41:31.867Z,-10866.84
2022-12-24T05:44:38.641Z,-10857.75
2022-12-24T05:47:45.058Z,-10863.78
2022-12-24T05:50:51.086Z,-10865.44
2022-12-24T05:53:57.439Z,-10854.97
2022-12-24T05:57:04.892Z,-10855.94
2022-12-24T06:00:12.285Z,-10852.31
2022-12-24T06:03:18.646Z,-10861.66
2022-12-24T06:06:26.791Z,-10861.25
2022-12-24T06:09:33.105Z,-10864.06
2022-12-24T06:12:40.645Z,-10864.06
2022-12-24T06:15:46.951Z,-10855.09
2022-12-24T06:18:53.148Z,-10845.72
2022-12-24T06:21:59.374Z,-10849.78
2022-12-24T06:25:06.358Z,-10857.06
2022-12-24T06:28:14.104Z,-10843.34
2022-12-24T06:31:22.861Z,-10849.38
2022-12-24T06:34:29.476Z,-10863.50
2022-12-24T06:37:35.672Z,-10859.28
2022-12-24T06:40:43.253Z,-10861.53
2022-12-24T06:43:53.747Z,-10858.44
2022-12-24T06:46:59.811Z,-10860.97
2022-12-24T06:50:07.001Z,-10863.78
2022-12-24T06:53:13.308Z,-10871.47
2022-12-24T06:56:21.353Z,-10867.41
2022-12-24T06:59:29.151Z,-10874.25
2022-12-24T07:02:35.811Z,-10872.72
2022-12-24T07:05:42.655Z,-10889.94
2022-12-24T07:08:49.048Z,-10890.06
2022-12-24T07:11:55.501Z,-10891.63
2022-12-24T07:15:03.418Z,-10891.47
2022-12-24T07:18:09.729Z,-10892.59
2022-12-24T07:21:16.011Z,-10893.56
2022-12-24T07:24:22.574Z,-10903.78
2022-12-24T07:27:28.895Z,-10900.44
2022-12-24T07:30:36.372Z,-10918.34
2022-12-24T07:33:42.765Z,-10910.78
2022-12-24T07:36:49.027Z,-10909.41
2022-12-24T07:39:55.089Z,-10902.66
2022-12-24T07:43:01.421Z,-10914.72
2022-12-24T07:46:08.971Z,-10910.50
2022-12-24T07:49:15.306Z,-10923.69
2022-12-24T07:52:21.487Z,-10941.88
2022-12-24T07:55:27.650Z,-10938.81
2022-12-24T07:58:33.827Z,-10927.88
2022-12-24T08:01:41.910Z,-10942.44
2022-12-24T08:04:48.614Z,-10938.09
2022-12-24T08:07:55.064Z,-10926.19
2022-12-24T08:11:03.717Z,-10960.78
2022-12-24T08:14:10.102Z,-10969.34
2022-12-24T08:17:18.001Z,-10978.03
2022-12-24T08:20:24.084Z,-10956.72
2022-12-24T08:23:30.635Z,-10965.16
2022-12-24T08:26:36.988Z,-10960.50
2022-12-24T08:29:43.521Z,-10953.09
2022-12-24T08:32:51.404Z,-10969.34
2022-12-24T08:35:57.779Z,-10968.78
2022-12-24T08:39:04.415Z,-10979.84
2022-12-24T08:42:10.976Z,-10981.13
2022-12-24T08:45:17.609Z,-10976.63
2022-12-24T08:48:25.493Z,-10983.34
2022-12-24T08:51:31.941Z,-10987.97
2022-12-24T08:54:38.106Z,-10993.88
2022-12-24T08:57:44.310Z,-10992.34
2022-12-24T09:00:50.715Z,-10994.44
2022-12-24T09:03:58.235Z,-10999.47
2022-12-24T09:07:04.708Z,-10993.44
2022-12-24T09:10:12.406Z,-10999.91
2022-12-24T09:13:18.680Z,-11006.78
2022-12-24T09:16:25.021Z,-11017.16
2022-12-24T09:19:32.531Z,-11012.38
2022-12-24T09:22:40.754Z,-11019.81
2022-12-24T09:25:47.161Z,-11017.72
2022-12-24T09:28:54.550Z,-11020.66
2022-12-24T09:32:01.420Z,-11014.19
2022-12-24T09:35:09.623Z,-11013.78
2022-12-24T09:38:15.737Z,-11017.84
2022-12-24T09:41:39.828Z,-11025.56
2022-12-24T09:44:50.908Z,-11021.91
2022-12-24T09:48:01.351Z,-11020.94
2022-12-24T09:51:11.792Z,-11035.94
2022-12-24T09:54:23.220Z,-11034.53
2022-12-24T09:57:33.806Z,-11029.34
2022-12-24T10:00:44.528Z,-11033.97
2022-12-24T10:03:54.020Z,-11043.94
2022-12-24T10:07:08.722Z,-11050.97
2022-12-24T10:10:25.523Z,-11049.28
2022-12-24T10:13:44.135Z,-11043.66
2022-12-24T10:16:59.662Z,-11051.94
2022-12-24T10:20:25.172Z,-11054.03
2022-12-24T10:23:39.960Z,-11058.53
2022-12-24T10:26:47.852Z,-11063.88
2022-12-24T10:30:00.215Z,-11066.94
2022-12-24T10:33:16.720Z,-11062.03
2022-12-24T10:36:28.157Z,-11084.91
2022-12-24T10:39:35.723Z,-11092.09
2022-12-24T10:42:50.663Z,-11084.50
2022-12-24T10:45:59.601Z,-11081.84
2022-12-24T10:49:08.694Z,-11086.03
2022-12-24T10:52:19.049Z,-11088.16
2022-12-24T10:55:28.324Z,-11103.31
2022-12-24T10:58:35.647Z,-11116.81
2022-12-24T11:01:47.185Z,-11111.75
2022-12-24T11:04:54.330Z,-11101.91
2022-12-24T11:08:04.776Z,-11110.75
2022-12-24T11:11:14.995Z,-11122.41
2022-12-24T11:14:22.727Z,-11140.81
2022-12-24T11:17:29.521Z,-11118.34
2022-12-24T11:20:37.022Z,-11133.38
2022-12-24T11:23:51.798Z,-11139.00
2022-12-24T11:27:30.579Z,-11143.34
2022-12-24T11:30:37.090Z,-11139.00
2022-12-24T11:33:49.182Z,-11151.22
2022-12-24T11:36:58.505Z,-11155.28
2022-12-24T11:40:05.768Z,-11155.00
2022-12-24T11:43:18.017Z,-11167.81
2022-12-24T11:46:38.713Z,-11179.19
2022-12-24T11:49:45.138Z,-11186.34
2022-12-24T11:52:56.519Z,-11170.47
2022-12-24T11:56:08.107Z,-11177.06
2022-12-24T11:59:21.932Z,-11176.78
2022-12-24T12:02:33.286Z,-11171.19
2022-12-24T12:05:40.539Z,-11171.59
2022-12-24T12:08:48.956Z,-11168.50
2022-12-24T12:11:59.763Z,-11175.53
2022-12-24T12:15:14.343Z,-11171.31
2022-12-24T12:18:25.273Z,-11176.50
2022-12-24T12:21:37.021Z,-11185.38
2022-12-24T12:24:51.895Z,-11175.94
2022-12-24T12:28:01.518Z,-11175.94
2022-12-24T12:31:18.623Z,-11163.88
2022-12-24T12:34:30.919Z,-11162.19
2022-12-24T12:37:42.287Z,-11171.19
2022-12-24T12:41:10.523Z,-11161.34
2022-12-24T12:44:32.764Z,-11161.63
2022-12-24T12:48:09.100Z,-11175.38
2022-12-24T12:51:23.304Z,-11156.41
2022-12-24T12:54:42.529Z,-11166.13
2022-12-24T12:57:51.164Z,-11163.31
2022-12-24T13:01:03.265Z,-11156.28
2022-12-24T13:04:44.900Z,-11149.53
2022-12-24T13:08:20.745Z,-11161.63
2022-12-24T13:11:52.961Z,-11151.50
2022-12-24T13:15:13.122Z,-11150.50
2022-12-24T13:18:45.492Z,-11149.09
2022-12-24T13:21:57.016Z,-11152.19
2022-12-24T13:25:03.400Z,-11148.69
2022-12-24T13:28:35.819Z,-11151.63
2022-12-24T13:31:42.230Z,-11148.41
2022-12-24T13:34:50.981Z,-11158.25
2022-12-24T13:38:45.380Z,-11154.59
2022-12-24T13:41:53.329Z,-11141.66
2022-12-24T13:45:34.690Z,-11147.69
2022-12-24T13:48:41.495Z,-11146.72
2022-12-24T13:51:48.399Z,-11145.59
2022-12-24T13:55:08.122Z,-11133.78
2022-12-24T13:58:22.039Z,-11136.19
2022-12-24T14:01:37.219Z,-11139.84
2022-12-24T14:04:43.581Z,-11127.06
2022-12-24T14:07:51.494Z,-11142.94
2022-12-24T14:11:17.861Z,-11132.38
2022-12-24T14:14:30.211Z,-11143.91
2022-12-24T14:17:38.420Z,-11138.84
2022-12-24T14:20:45.388Z,-11133.38
2022-12-24T14:23:56.306Z,-11130.13
2022-12-24T14:27:18.190Z,-11119.19
2022-12-24T14:30:25.782Z,-11120.88
2022-12-24T14:33:32.359Z,-11113.72
2022-12-24T14:36:39.479Z,-11117.38
2022-12-24T14:39:57.020Z,-11115.13
2022-12-24T14:43:13.359Z,-11117.50
2022-12-24T14:46:28.980Z,-11111.19
2022-12-24T14:49:47.329Z,-11103.75
2022-12-24T14:53:09.117Z,-11098.81
2022-12-24T14:56:20.334Z,-11099.25
2022-12-24T14:59:28.982Z,-11098.41
2022-12-24T15:02:53.311Z,-11088.84
2022-12-24T15:06:02.306Z,-11087.31
2022-12-24T15:09:16.063Z,-11083.22
2022-12-24T15:12:23.458Z,-11085.19
2022-12-24T15:15:31.630Z,-11079.31
2022-12-24T15:18:47.758Z,-11074.69
2022-12-24T15:21:55.151Z,-11080.28
2022-12-24T15:25:01.424Z,-11077.63
2022-12-24T15:28:18.688Z,-11079.88
2022-12-24T15:31:27.875Z,-11078.47
2022-12-24T15:34:38.576Z,-11073.84
2022-12-24T15:37:45.077Z,-11081.00
2022-12-24T15:40:51.302Z,-11082.69
2022-12-24T15:44:04.308Z,-11080.44
2022-12-24T15:47:17.731Z,-11078.19
2022-12-24T15:50:30.789Z,-11068.34
2022-12-24T15:53:43.777Z,-11077.91
2022-12-24T15:56:50.215Z,-11083.78
2022-12-24T15:59:58.206Z,-11079.88
2022-12-24T16:03:20.441Z,-11083.38
2022-12-24T16:06:27.788Z,-11075.66
2022-12-24T16:09:44.210Z,-11072.72
2022-12-24T16:12:50.225Z,-11074.13
2022-12-24T16:16:00.892Z,-11067.78
2022-12-24T16:19:09.322Z,-11067.94
2022-12-24T16:22:36.334Z,-11075.09
2022-12-24T16:25:42.553Z,-11070.31
2022-12-24T16:28:48.821Z,-11081.41
2022-12-24T16:31:56.965Z,-11075.66
2022-12-24T16:35:08.045Z,-11082.81
2022-12-24T16:38:14.961Z,-11077.06
2022-12-24T16:41:21.183Z,-11075.25
2022-12-24T16:44:26.731Z,-11084.34
2022-12-24T16:47:41.955Z,-11079.88
2022-12-24T16:50:51.102Z,-11078.19
2022-12-24T16:53:57.403Z,-11083.94
2022-12-24T16:57:03.986Z,-11076.50
2022-12-24T17:00:18.433Z,-11078.59
2022-12-24T17:03:24.950Z,-11083.22
2022-12-24T17:06:32.640Z,-11082.13
2022-12-24T17:09:39.065Z,-11084.34
2022-12-24T17:12:45.204Z,-11082.53
2022-12-24T17:15:51.239Z,-11077.47
2022-12-24T17:18:57.699Z,-11086.88
2022-12-24T17:22:05.364Z,-11076.06
2022-12-24T17:25:14.381Z,-11081.56
2022-12-24T17:28:20.930Z,-11082.69
2022-12-24T17:31:27.300Z,-11072.84
2022-12-24T17:34:33.623Z,-11073.69
2022-12-24T17:37:41.610Z,-11073.84
2022-12-24T17:40:48.138Z,-11073.41
2022-12-24T17:43:54.443Z,-11081.97
2022-12-24T17:47:02.148Z,-11082.13
2022-12-24T17:50:09.776Z,-11093.91
2022-12-24T17:53:17.769Z,-11094.47
2022-12-24T17:56:24.082Z,-11104.03
2022-12-24T17:59:30.820Z,-11092.78
2022-12-24T18:02:37.844Z,-11089.41
2022-12-24T18:05:44.411Z,-11087.59
2022-12-24T18:08:52.530Z,-11087.16
2022-12-24T18:11:58.758Z,-11085.75
2022-12-24T18:15:05.631Z,-11082.94
2022-12-24T18:18:12.204Z,-11080.28
2022-12-24T18:21:20.709Z,-11080.00
2022-12-24T18:24:28.808Z,-11079.59
2022-12-24T18:27:36.100Z,-11074.81
2022-12-24T18:30:42.486Z,-11073.28
2022-12-24T18:33:50.566Z,-11080.84
2022-12-24T18:36:57.066Z,-11084.06
2022-12-24T18:40:05.006Z,-11083.09
2022-12-24T18:43:11.389Z,-11081.28
2022-12-24T18:46:19.736Z,-11089.69
2022-12-24T18:49:26.000Z,-11091.38
2022-12-24T18:52:32.581Z,-11089.13
2022-12-24T18:55:40.241Z,-11086.47
2022-12-24T18:58:46.613Z,-11089.97
2022-12-24T19:01:53.454Z,-11093.50
2022-12-24T19:04:59.999Z,-11088.56
2022-12-24T19:08:22.200Z,-11083.50
2022-12-24T19:11:36.293Z,-11086.31
2022-12-24T19:14:42.370Z,-11090.97
2022-12-24T19:17:48.939Z,-11092.78
2022-12-24T19:20:54.948Z,-11089.84
2022-12-24T19:24:01.704Z,-11091.94
2022-12-24T19:27:09.216Z,-11087.72
2022-12-24T19:30:15.772Z,-11081.41
2022-12-24T19:33:22.144Z,-11077.06
2022-12-24T19:36:30.521Z,-11080.28
2022-12-24T19:39:37.197Z,-11081.00
2022-12-24T19:42:45.562Z,-11092.50
2022-12-24T19:45:58.499Z,-11115.81
2022-12-24T19:49:07.916Z,-11116.38
2022-12-24T19:52:14.342Z,-11117.09
2022-12-24T19:55:20.757Z,-11110.47
2022-12-24T19:58:29.249Z,-11106.28
2022-12-24T20:01:36.579Z,-11088.16
2022-12-24T20:04:43.219Z,-11079.59
2022-12-24T20:07:49.769Z,-11075.09
2022-12-24T20:10:56.685Z,-11071.72
2022-12-24T20:14:05.909Z,-11073.41
2022-12-24T20:17:12.378Z,-11073.12
2022-12-24T20:20:19.301Z,-11073.41
2022-12-24T20:23:25.750Z,-11066.66
2022-12-24T20:26:32.238Z,-11067.66
2022-12-24T20:29:40.056Z,-11066.66
2022-12-24T20:32:46.164Z,-11067.50
2022-12-24T20:35:52.748Z,-11070.75
2022-12-24T20:38:59.162Z,-11066.13
2022-12-24T20:42:05.605Z,-11053.47
2022-12-24T20:45:13.352Z,-11051.25
2022-12-24T20:48:20.449Z,-11056.56
2022-12-24T20:51:28.840Z,-11056.56
2022-12-24T20:54:35.072Z,-11052.06
2022-12-24T20:57:41.287Z,-11044.94
2022-12-24T21:00:49.571Z,-11042.13
2022-12-24T21:03:57.618Z,-11042.81
2022-12-24T21:07:03.892Z,-11037.34
2022-12-24T21:10:11.857Z,-11041.41
2022-12-24T21:13:18.825Z,-11037.50
2022-12-24T21:16:26.770Z,-11036.66
2022-12-24T21:19:33.214Z,-11033.69
2022-12-24T21:22:39.872Z,-11032.28
2022-12-24T21:25:46.521Z,-11036.38
2022-12-24T21:28:53.398Z,-11043.25
2022-12-24T21:32:01.372Z,-11041.41
2022-12-24T21:35:08.348Z,-11033.28
2022-12-24T21:38:14.837Z,-11035.25
2022-12-24T21:41:23.697Z,-11030.19
2022-12-24T21:44:30.075Z,-11028.22
2022-12-24T21:47:38.408Z,-11020.78
2022-12-24T21:50:55.885Z,-11016.44
2022-12-24T21:54:19.823Z,-11019.25
2022-12-24T21:57:43.664Z,-11012.25
2022-12-24T22:00:50.247Z,-11013.66
2022-12-24T22:03:58.033Z,-11019.53
2022-12-24T22:07:23.389Z,-11013.50
2022-12-24T22:10:47.043Z,-11009.16
2022-12-24T22:13:54.331Z,-11006.78
2022-12-24T22:17:01.170Z,-11010.69
2022-12-24T22:20:10.750Z,-11008.31
2022-12-24T22:23:17.574Z,-11004.94
2022-12-24T22:26:24.102Z,-11006.06
2022-12-24T22:29:30.287Z,-11007.34
2022-12-24T22:32:36.971Z,-11005.50
2022-12-24T22:35:44.682Z,-11002.56
2022-12-24T22:38:51.234Z,-11003.41
2022-12-24T22:41:58.392Z,-10998.91
2022-12-24T22:45:06.235Z,-11000.03
2022-12-24T22:48:12.697Z,-10994.00
2022-12-24T22:51:22.831Z,-10988.69
2022-12-24T22:54:29.363Z,-10988.53
2022-12-24T22:57:35.972Z,-10988.53
2022-12-24T23:00:44.384Z,-10986.44
2022-12-24T23:03:50.988Z,-10992.06
2022-12-24T23:06:58.589Z,-10995.28
2022-12-24T23:10:05.340Z,-10990.94
2022-12-24T23:13:31.135Z,-10994.56
2022-12-24T23:16:38.041Z,-10983.50
2022-12-24T23:19:44.820Z,-10983.63
2022-12-24T23:22:52.329Z,-10985.75
2022-12-24T23:26:03.805Z,-10986.31
2022-12-24T23:29:10.416Z,-10980.28
2022-12-24T23:32:16.818Z,-10987.84
2022-12-24T23:35:23.202Z,-10986.03
2022-12-24T23:38:31.232Z,-10980.41
2022-12-24T23:41:37.514Z,-10980.28
2022-12-24T23:44:43.889Z,-10974.66
2022-12-24T23:47:49.847Z,-10977.34
2022-12-24T23:51:05.532Z,-10982.25
2022-12-24T23:54:13.512Z,-10981.41
2022-12-24T23:57:19.883Z,-10980.28
